Time;durP1;ratioP1;P1;durP2;ratioP2;P2;SDS_P1;SDS_P2;PMS_P1;PMS_P2;Temp;Humidity;BMP_temperature;BMP_pressure;BME280_temperature;BME280_humidity;BME280_pressure;Samples;Min_cycle;Max_cycle;Signal;HPM_P1;HPM_P2
2021/12/30 07:01:46;;;;;;;63.72;7.30;;;;;;;;;;5234541;23;20044;-82
2021/12/30 07:04:13;;;;;;;48.22;6.32;;;;;;;;;;4911162;29;20044;-83
2021/12/30 07:06:41;;;;;;;65.43;6.78;;;;;;;;;;4910647;29;20135;-81
2021/12/30 07:09:08;;;;;;;59.38;7.07;;;;;;;;;;4911046;29;20056;-81
2021/12/30 07:11:34;;;;;;;61.33;7.03;;;;;;;;;;4909977;29;20048;-81
2021/12/30 07:14:01;;;;;;;57.67;5.88;;;;;;;;;;4910092;29;20140;-81
2021/12/30 07:16:27;;;;;;;58.50;6.50;;;;;;;;;;4910497;29;20043;-81
2021/12/30 07:18:54;;;;;;;60.25;5.93;;;;;;;;;;4923116;29;20036;-82
2021/12/30 07:21:21;;;;;;;57.63;6.05;;;;;;;;;;4906007;29;20064;-82
2021/12/30 07:23:48;;;;;;;63.92;6.32;;;;;;;;;;4909796;29;20444;-81
2021/12/30 07:26:14;;;;;;;59.63;5.40;;;;;;;;;;4909447;29;20670;-81
2021/12/30 07:28:41;;;;;;;51.55;6.43;;;;;;;;;;4909853;29;20056;-82
2021/12/30 07:31:08;;;;;;;50.08;5.47;;;;;;;;;;4910715;29;20056;-80
2021/12/30 07:33:34;;;;;;;45.05;6.40;;;;;;;;;;4908720;29;20048;-81
2021/12/30 07:36:01;;;;;;;41.15;5.15;;;;;;;;;;4908487;29;20068;-81
2021/12/30 07:38:28;;;;;;;37.28;5.57;;;;;;;;;;4904364;29;20061;-81
2021/12/30 07:40:54;;;;;;;42.17;5.25;;;;;;;;;;4908658;29;20052;-82
2021/12/30 07:43:21;;;;;;;45.90;5.80;;;;;;;;;;4910431;29;20044;-82
2021/12/30 07:45:47;;;;;;;43.80;5.22;;;;;;;;;;4910959;29;20059;-82
2021/12/30 07:48:14;;;;;;;42.60;5.85;;;;;;;;;;4908365;29;20048;-82
2021/12/30 07:50:41;;;;;;;48.97;5.60;;;;;;;;;;4908461;29;20044;-82
2021/12/30 07:53:07;;;;;;;37.63;4.90;;;;;;;;;;4908440;29;20067;-82
2021/12/30 07:55:34;;;;;;;36.17;5.57;;;;;;;;;;4910184;29;20120;-83
2021/12/30 07:58:01;;;;;;;47.13;5.93;;;;;;;;;;4910029;29;20056;-82
2021/12/30 08:00:27;;;;;;;51.42;5.28;;;;;;;;;;4908117;29;20048;-82
2021/12/30 08:02:55;;;;;;;57.28;5.75;;;;;;;;;;4909131;29;20045;-82
2021/12/30 08:05:22;;;;;;;47.47;5.65;;;;;;;;;;4911979;29;20048;-82
2021/12/30 08:07:49;;;;;;;43.63;5.25;;;;;;;;;;4911321;29;20059;-82
2021/12/30 08:10:18;;;;;;;35.60;4.55;;;;;;;;;;4914662;29;20434;-81
2021/12/30 08:12:47;;;;;;;35.90;4.22;;;;;;;;;;4910095;29;20056;-83
2021/12/30 08:15:14;;;;;;;;;;;;;;;;;;4911272;29;20076;-82
2021/12/30 08:17:42;;;;;;;40.10;5.00;;;;;;;;;;4910341;29;19923;-82
2021/12/30 08:20:10;;;;;;;33.17;4.45;;;;;;;;;;4911544;29;20059;-81
2021/12/30 08:22:38;;;;;;;44.00;4.90;;;;;;;;;;4912508;29;20071;-82
2021/12/30 08:25:07;;;;;;;32.70;4.15;;;;;;;;;;4908129;29;20076;-85
2021/12/30 08:27:34;;;;;;;27.85;3.90;;;;;;;;;;4910356;29;20044;-81
2021/12/30 08:30:01;;;;;;;30.80;4.07;;;;;;;;;;4910601;29;20059;-82
2021/12/30 08:32:27;;;;;;;22.10;3.58;;;;;;;;;;4910655;29;20044;-81
2021/12/30 08:34:54;;;;;;;23.95;4.13;;;;;;;;;;4913619;29;20076;-83
2021/12/30 08:37:21;;;;;;;37.42;3.95;;;;;;;;;;4914309;29;20429;-84
2021/12/30 08:39:47;;;;;;;24.02;3.78;;;;;;;;;;4879301;29;20108;-82
2021/12/30 08:42:26;;;;;;;32.60;4.05;;;;;;;;;;4907071;29;20067;-83
2021/12/30 08:44:54;;;;;;;21.98;4.00;;;;;;;;;;4910669;29;20040;-85
2021/12/30 08:47:21;;;;;;;22.63;3.50;;;;;;;;;;4909023;29;20044;-79
2021/12/30 08:49:48;;;;;;;28.42;3.80;;;;;;;;;;4906650;29;20108;-81
2021/12/30 08:52:19;;;;;;;23.50;3.20;;;;;;;;;;4899385;29;20108;-82
2021/12/30 08:54:47;;;;;;;24.92;3.40;;;;;;;;;;4910619;29;20044;-81
2021/12/30 08:57:15;;;;;;;18.90;2.97;;;;;;;;;;4905394;29;20055;-82
2021/12/30 08:59:42;;;;;;;16.83;2.90;;;;;;;;;;4909785;29;20056;-83
2021/12/30 09:02:10;;;;;;;26.92;2.83;;;;;;;;;;4909425;29;20059;-82
2021/12/30 09:04:37;;;;;;;19.75;3.63;;;;;;;;;;4909791;29;20047;-84
2021/12/30 09:07:04;;;;;;;19.00;3.15;;;;;;;;;;4908154;29;20080;-82
2021/12/30 09:09:30;;;;;;;22.77;3.55;;;;;;;;;;4909127;29;20048;-83
2021/12/30 09:11:57;;;;;;;24.90;3.17;;;;;;;;;;4908506;29;20076;-80
2021/12/30 09:14:24;;;;;;;27.23;3.58;;;;;;;;;;4907545;29;20056;-80
2021/12/30 09:16:51;;;;;;;24.98;3.00;;;;;;;;;;4907514;29;20069;-84
2021/12/30 09:19:18;;;;;;;24.08;3.50;;;;;;;;;;4908428;29;20112;-83
2021/12/30 09:21:49;;;;;;;22.48;3.67;;;;;;;;;;4898387;29;20058;-81
2021/12/30 09:24:15;;;;;;;20.05;3.50;;;;;;;;;;4907473;29;20075;-81
2021/12/30 09:26:42;;;;;;;29.00;3.65;;;;;;;;;;4909659;29;20039;-82
2021/12/30 09:29:12;;;;;;;24.75;4.20;;;;;;;;;;4909068;29;20056;-82
2021/12/30 09:31:45;;;;;;;25.67;3.25;;;;;;;;;;4908856;29;20048;-82
2021/12/30 09:34:13;;;;;;;30.63;4.10;;;;;;;;;;4909538;29;20111;-83
2021/12/30 09:36:40;;;;;;;32.30;3.72;;;;;;;;;;4909201;29;20079;-81
2021/12/30 09:39:10;;;;;;;27.42;4.30;;;;;;;;;;4907068;29;20080;-83
2021/12/30 09:41:43;;;;;;;30.15;3.88;;;;;;;;;;4891102;29;20079;-81
2021/12/30 09:44:13;;;;;;;31.75;8.25;;;;;;;;;;4906895;29;20406;-82
2021/12/30 09:46:40;;;;;;;27.17;4.10;;;;;;;;;;4907213;29;20068;-82
2021/12/30 09:49:08;;;;;;;28.42;3.75;;;;;;;;;;4905843;29;20474;-82
2021/12/30 09:51:36;;;;;;;32.42;5.70;;;;;;;;;;4906125;29;20103;-82
2021/12/30 09:54:04;;;;;;;27.60;9.43;;;;;;;;;;4902729;29;20048;-82
2021/12/30 09:56:31;;;;;;;37.88;13.80;;;;;;;;;;4905954;29;20048;-83
2021/12/30 09:58:57;;;;;;;29.40;6.55;;;;;;;;;;4906813;29;20083;-82
2021/12/30 10:01:24;;;;;;;34.40;4.72;;;;;;;;;;4907474;29;20115;-83
2021/12/30 10:03:56;;;;;;;30.75;4.47;;;;;;;;;;4908913;29;20580;-81
2021/12/30 10:06:22;;;;;;;25.70;3.85;;;;;;;;;;4902217;29;20055;-81
2021/12/30 10:08:58;;;;;;;26.38;4.03;;;;;;;;;;4905547;29;20111;-81
2021/12/30 10:11:26;;;;;;;29.25;3.90;;;;;;;;;;4907176;29;20079;-81
2021/12/30 10:13:57;;;;;;;31.08;5.15;;;;;;;;;;4902644;29;20096;-81
2021/12/30 10:16:24;;;;;;;69.35;31.75;;;;;;;;;;4906432;29;20169;-82
2021/12/30 10:19:05;;;;;;;31.98;15.73;;;;;;;;;;4908742;29;20054;-81
2021/12/30 10:21:40;;;;;;;39.38;13.43;;;;;;;;;;4890491;29;20044;-80
2021/12/30 10:24:10;;;;;;;19.30;6.35;;;;;;;;;;4906040;29;20535;-82
2021/12/30 10:27:06;;;;;;;23.95;5.10;;;;;;;;;;4904904;29;20088;-81
2021/12/30 10:29:44;;;;;;;21.67;3.90;;;;;;;;;;4898490;29;20044;-83
2021/12/30 10:32:21;;;;;;;21.77;3.53;;;;;;;;;;4893574;29;20049;-81
2021/12/30 10:35:01;;;;;;;28.48;4.55;;;;;;;;;;4892057;29;20060;-83
2021/12/30 10:37:27;;;;;;;28.25;4.90;;;;;;;;;;4894288;29;20104;-82
2021/12/30 10:39:54;;;;;;;24.10;3.67;;;;;;;;;;4891964;29;20580;-82
2021/12/30 10:42:21;;;;;;;29.15;4.47;;;;;;;;;;4891079;29;20041;-82
2021/12/30 10:45:04;;;;;;;27.27;3.83;;;;;;;;;;4875159;29;20052;-82
2021/12/30 10:47:50;;;;;;;16.23;3.92;;;;;;;;;;4893249;29;20874;-80
2021/12/30 10:50:21;;;;;;;22.10;3.45;;;;;;;;;;4889830;29;20044;-82
2021/12/30 10:52:51;;;;;;;16.90;2.80;;;;;;;;;;4918455;29;20087;-85
2021/12/30 10:55:18;;;;;;;26.38;4.97;;;;;;;;;;4925436;29;20126;-82
2021/12/30 10:57:44;;;;;;;14.52;2.40;;;;;;;;;;4906572;29;20052;-81
2021/12/30 11:00:24;;;;;;;28.33;4.60;;;;;;;;;;4905309;29;20512;-82
2021/12/30 11:02:51;;;;;;;22.92;3.20;;;;;;;;;;4909008;29;20079;-84
2021/12/30 11:05:18;;;;;;;18.70;3.28;;;;;;;;;;4908136;29;20135;-82
2021/12/30 11:07:53;;;;;;;19.40;3.13;;;;;;;;;;4909372;29;20044;-84
2021/12/30 11:10:32;;;;;;;17.92;3.35;;;;;;;;;;4908135;29;20579;-83
2021/12/30 11:13:10;;;;;;;21.23;3.42;;;;;;;;;;4909636;29;20064;-83
2021/12/30 11:15:37;;;;;;;14.65;2.72;;;;;;;;;;4907395;29;20075;-85
2021/12/30 11:18:11;;;;;;;13.65;2.42;;;;;;;;;;4908685;29;20139;-83
2021/12/30 11:20:40;;;;;;;11.80;2.25;;;;;;;;;;4906479;29;20048;-82
2021/12/30 11:23:07;;;;;;;14.98;3.17;;;;;;;;;;4907043;29;20528;-83
2021/12/30 11:25:34;;;;;;;15.35;2.42;;;;;;;;;;4908502;29;20080;-82
2021/12/30 11:28:01;;;;;;;9.88;2.72;;;;;;;;;;4906792;29;20055;-83
2021/12/30 11:30:27;;;;;;;13.70;2.47;;;;;;;;;;4908307;29;20067;-83
2021/12/30 11:32:54;;;;;;;13.15;2.60;;;;;;;;;;4908132;29;20080;-85
2021/12/30 11:35:25;;;;;;;13.00;3.22;;;;;;;;;;4906020;29;20128;-84
2021/12/30 11:37:53;;;;;;;12.10;2.38;;;;;;;;;;4895691;29;20045;-84
2021/12/30 11:40:23;;;;;;;10.13;2.33;;;;;;;;;;4906029;29;20079;-85
2021/12/30 11:42:57;;;;;;;9.48;2.53;;;;;;;;;;4913489;29;20048;-84
2021/12/30 11:45:42;;;;;;;16.75;5.75;;;;;;;;;;4914287;29;20525;-83
2021/12/30 11:48:22;;;;;;;57.95;19.20;;;;;;;;;;4909508;29;20593;-84
2021/12/30 11:50:49;;;;;;;64.75;26.77;;;;;;;;;;4911138;29;20063;-84
2021/12/30 11:53:25;;;;;;;133.07;55.83;;;;;;;;;;4910970;29;20048;-83
2021/12/30 11:55:53;;;;;;;70.15;31.05;;;;;;;;;;4903832;29;20041;-83
2021/12/30 11:58:35;;;;;;;59.25;25.95;;;;;;;;;;4911274;29;20044;-84
2021/12/30 12:01:24;;;;;;;41.83;18.27;;;;;;;;;;4913781;29;20131;-82
2021/12/30 12:03:53;;;;;;;14.80;6.10;;;;;;;;;;4911985;29;20039;-81
2021/12/30 12:07:07;;;;;;;16.45;5.10;;;;;;;;;;4909518;29;20048;-82
2021/12/30 12:09:35;;;;;;;15.35;5.95;;;;;;;;;;4902186;29;20036;-83
2021/12/30 12:12:04;;;;;;;11.90;2.70;;;;;;;;;;4911406;29;20525;-83
2021/12/30 12:14:35;;;;;;;17.05;3.13;;;;;;;;;;4908904;29;20071;-83
2021/12/30 12:17:10;;;;;;;8.35;2.15;;;;;;;;;;4911528;29;20462;-82
2021/12/30 12:19:45;;;;;;;10.38;2.60;;;;;;;;;;4912183;29;20100;-82
2021/12/30 12:22:18;;;;;;;8.20;2.42;;;;;;;;;;4911592;29;20041;-83
2021/12/30 12:24:46;;;;;;;9.70;2.70;;;;;;;;;;4911040;29;20052;-85
2021/12/30 12:27:18;;;;;;;12.57;3.33;;;;;;;;;;4887552;29;20052;-83
2021/12/30 12:29:55;;;;;;;13.73;2.72;;;;;;;;;;4909910;29;20473;-83
2021/12/30 12:32:30;;;;;;;8.27;2.42;;;;;;;;;;4905577;29;20044;-83
2021/12/30 12:34:59;;;;;;;10.38;2.08;;;;;;;;;;4897529;29;20079;-82
2021/12/30 12:37:39;;;;;;;6.75;2.17;;;;;;;;;;4912352;29;20044;-83
2021/12/30 12:40:15;;;;;;;10.50;2.17;;;;;;;;;;4912243;29;20055;-83
2021/12/30 12:42:51;;;;;;;10.32;2.10;;;;;;;;;;4911663;29;20063;-83
2021/12/30 12:45:37;;;;;;;7.13;2.33;;;;;;;;;;4910997;29;20048;-83
2021/12/30 12:48:17;;;;;;;11.20;2.70;;;;;;;;;;4911198;29;20052;-81
2021/12/30 12:50:46;;;;;;;14.05;2.25;;;;;;;;;;4910498;29;20090;-82
2021/12/30 12:53:21;;;;;;;13.88;2.50;;;;;;;;;;4909597;29;20108;-82
2021/12/30 12:55:48;;;;;;;12.82;2.33;;;;;;;;;;4911985;29;20045;-82
2021/12/30 12:58:23;;;;;;;17.67;2.80;;;;;;;;;;4913334;29;20112;-82
2021/12/30 13:00:50;;;;;;;14.00;2.47;;;;;;;;;;4912535;29;20067;-82
2021/12/30 13:03:18;;;;;;;15.30;2.58;;;;;;;;;;4911682;29;20584;-82
2021/12/30 13:06:18;;;;;;;10.93;1.90;;;;;;;;;;4909770;29;20055;-83
2021/12/30 13:08:51;;;;;;;15.60;2.47;;;;;;;;;;4910687;29;20296;-80
2021/12/30 13:11:32;;;;;;;18.20;2.50;;;;;;;;;;4907398;29;20063;-83
2021/12/30 13:14:01;;;;;;;14.27;2.47;;;;;;;;;;4896862;29;20493;-82
2021/12/30 13:16:34;;;;;;;19.90;3.40;;;;;;;;;;4906018;29;20048;-82
2021/12/30 13:19:14;;;;;;;25.33;2.88;;;;;;;;;;4907532;29;20060;-82
2021/12/30 13:21:48;;;;;;;21.20;2.83;;;;;;;;;;4892307;29;20071;-82
2021/12/30 13:24:38;;;;;;;19.30;2.80;;;;;;;;;;4907867;29;20100;-81
2021/12/30 13:27:07;;;;;;;18.73;2.70;;;;;;;;;;4909200;29;20434;-80
2021/12/30 13:29:39;;;;;;;17.45;3.25;;;;;;;;;;4905429;29;20174;-81
2021/12/30 13:32:17;;;;;;;21.98;3.03;;;;;;;;;;4913089;29;20080;-81
2021/12/30 13:35:02;;;;;;;16.60;2.70;;;;;;;;;;4910421;29;20052;-81
2021/12/30 13:37:45;;;;;;;19.40;3.05;;;;;;;;;;4911489;29;20702;-84
2021/12/30 13:40:45;;;;;;;26.10;2.97;;;;;;;;;;4914034;29;20115;-83
2021/12/30 13:43:15;;;;;;;21.65;2.88;;;;;;;;;;4911785;29;20721;-82
2021/12/30 13:45:48;;;;;;;22.27;2.67;;;;;;;;;;4902572;29;20053;-82
2021/12/30 13:48:19;;;;;;;19.40;2.75;;;;;;;;;;4902929;29;20068;-81
2021/12/30 13:50:52;;;;;;;17.25;2.53;;;;;;;;;;4910226;29;20116;-82
2021/12/30 13:53:19;;;;;;;21.25;2.38;;;;;;;;;;4897009;29;20054;-81
2021/12/30 13:55:48;;;;;;;15.45;2.53;;;;;;;;;;4905211;29;20047;-81
2021/12/30 13:58:42;;;;;;;;;;;;;;;;;;;;;
2021/12/30 14:01:33;;;;;;;22.30;2.95;;;;;;;;;;4895930;29;20132;-85
2021/12/30 14:04:13;;;;;;;16.95;2.78;;;;;;;;;;4908544;29;20056;-84
2021/12/30 14:06:42;;;;;;;17.73;2.85;;;;;;;;;;4906360;29;20048;-83
2021/12/30 14:09:15;;;;;;;23.83;2.70;;;;;;;;;;4906807;29;20056;-82
2021/12/30 14:11:46;;;;;;;20.25;3.25;;;;;;;;;;4905434;29;20055;-81
2021/12/30 14:14:24;;;;;;;22.77;3.05;;;;;;;;;;4904661;29;20063;-82
2021/12/30 14:16:58;;;;;;;22.80;3.05;;;;;;;;;;4904615;29;20054;-81
2021/12/30 14:19:49;;;;;;;21.45;2.85;;;;;;;;;;4889800;29;20088;-81
2021/12/30 14:22:16;;;;;;;22.88;3.38;;;;;;;;;;4907761;29;20052;-82
2021/12/30 14:24:43;;;;;;;21.00;2.72;;;;;;;;;;4901589;29;20077;-83
2021/12/30 14:27:14;;;;;;;17.65;2.55;;;;;;;;;;4901260;29;20048;-82
2021/12/30 14:29:52;;;;;;;;;;;;;;;;;;;;;
2021/12/30 14:32:25;;;;;;;18.80;2.80;;;;;;;;;;4899116;29;20433;-82
2021/12/30 14:34:51;;;;;;;16.60;2.35;;;;;;;;;;4882644;29;20521;-83
2021/12/30 14:37:24;;;;;;;13.15;2.50;;;;;;;;;;4907040;29;20044;-83
2021/12/30 14:39:53;;;;;;;15.73;2.40;;;;;;;;;;4902196;29;20048;-81
2021/12/30 14:42:41;;;;;;;16.27;2.65;;;;;;;;;;4908821;29;20055;-82
2021/12/30 14:45:15;;;;;;;24.58;2.50;;;;;;;;;;4907783;29;20040;-83
2021/12/30 14:47:58;;;;;;;15.20;2.60;;;;;;;;;;4903625;29;20044;-81
2021/12/30 14:50:28;;;;;;;20.77;2.33;;;;;;;;;;4900939;29;20066;-82
2021/12/30 14:53:00;;;;;;;14.73;2.38;;;;;;;;;;4902306;29;20048;-82
2021/12/30 14:55:40;;;;;;;20.17;2.63;;;;;;;;;;4900543;29;20045;-81
2021/12/30 14:58:09;;;;;;;20.70;2.50;;;;;;;;;;4899683;29;20131;-84
2021/12/30 15:00:42;;;;;;;16.35;2.53;;;;;;;;;;4905855;29;20064;-82
2021/12/30 15:03:09;;;;;;;18.88;2.28;;;;;;;;;;4904882;29;20060;-82
2021/12/30 15:05:36;;;;;;;18.33;2.55;;;;;;;;;;4906956;29;20059;-82
2021/12/30 15:08:07;;;;;;;18.65;2.58;;;;;;;;;;4902450;29;20058;-82
2021/12/30 15:10:35;;;;;;;14.02;2.20;;;;;;;;;;4906568;29;20607;-82
2021/12/30 15:13:05;;;;;;;13.80;2.17;;;;;;;;;;4907020;29;20189;-81
2021/12/30 15:15:33;;;;;;;17.58;2.00;;;;;;;;;;4900265;29;20058;-82
2021/12/30 15:18:00;;;;;;;13.98;1.90;;;;;;;;;;4909564;29;20154;-82
2021/12/30 15:20:29;;;;;;;13.15;2.20;;;;;;;;;;4911993;29;20062;-84
2021/12/30 15:22:57;;;;;;;11.55;2.05;;;;;;;;;;4910228;29;20044;-83
2021/12/30 15:25:25;;;;;;;12.68;2.97;;;;;;;;;;4911988;29;20055;-82
2021/12/30 15:27:52;;;;;;;19.38;3.35;;;;;;;;;;4913447;29;20128;-82
2021/12/30 15:30:22;;;;;;;15.10;2.58;;;;;;;;;;4912831;29;20104;-82
2021/12/30 15:32:54;;;;;;;16.35;3.00;;;;;;;;;;4912562;29;20568;-82
2021/12/30 15:35:23;;;;;;;11.38;2.53;;;;;;;;;;4880653;29;20534;-84
2021/12/30 15:37:52;;;;;;;13.18;2.22;;;;;;;;;;4906563;29;20056;-86
2021/12/30 15:40:25;;;;;;;15.05;2.17;;;;;;;;;;4866184;29;20112;-88
2021/12/30 15:42:55;;;;;;;9.38;2.05;;;;;;;;;;4913803;29;20473;-88
2021/12/30 15:45:24;;;;;;;10.85;3.10;;;;;;;;;;4910688;29;20059;-86
2021/12/30 15:47:51;;;;;;;20.17;2.50;;;;;;;;;;4902052;29;20059;-85
2021/12/30 15:50:21;;;;;;;13.68;3.22;;;;;;;;;;4890468;29;20048;-86
2021/12/30 15:52:55;;;;;;;13.00;2.47;;;;;;;;;;4909515;29;20039;-86
2021/12/30 15:55:24;;;;;;;15.48;3.13;;;;;;;;;;4861174;29;20410;-87
2021/12/30 15:58:14;;;;;;;15.70;3.83;;;;;;;;;;4918026;29;20072;-89
2021/12/30 16:00:41;;;;;;;14.63;4.30;;;;;;;;;;4909811;29;20055;-87
2021/12/30 16:03:14;;;;;;;18.38;3.42;;;;;;;;;;4909184;29;20048;-87
2021/12/30 16:05:44;;;;;;;14.65;3.65;;;;;;;;;;4905078;29;20046;-87
2021/12/30 16:08:17;;;;;;;13.13;3.53;;;;;;;;;;4889514;29;20113;-87
2021/12/30 16:10:47;;;;;;;11.40;2.80;;;;;;;;;;4890600;29;20059;-86
2021/12/30 16:13:16;;;;;;;14.52;2.38;;;;;;;;;;4883577;29;20056;-86
2021/12/30 16:15:49;;;;;;;16.02;2.70;;;;;;;;;;4899703;29;20051;-89
2021/12/30 16:18:19;;;;;;;18.60;3.22;;;;;;;;;;4897340;29;20064;-89
2021/12/30 16:20:49;;;;;;;14.35;2.55;;;;;;;;;;4914114;29;20047;-87
2021/12/30 16:23:18;;;;;;;13.45;2.40;;;;;;;;;;4896765;29;20052;-86
2021/12/30 16:25:48;;;;;;;20.33;3.17;;;;;;;;;;4897005;29;20060;-87
2021/12/30 16:28:15;;;;;;;14.52;2.75;;;;;;;;;;4905176;29;20052;-87
2021/12/30 16:30:42;;;;;;;15.98;2.58;;;;;;;;;;4909520;29;20043;-85
2021/12/30 16:33:10;;;;;;;19.85;2.90;;;;;;;;;;4903610;29;20055;-87
2021/12/30 16:35:38;;;;;;;14.20;2.88;;;;;;;;;;4912574;29;20517;-85
2021/12/30 16:38:05;;;;;;;23.05;2.97;;;;;;;;;;4912092;29;20044;-85
2021/12/30 16:40:32;;;;;;;19.30;2.92;;;;;;;;;;4911515;29;20047;-87
2021/12/30 16:42:58;;;;;;;16.63;3.03;;;;;;;;;;4897277;29;20044;-85
2021/12/30 16:45:27;;;;;;;30.13;4.43;;;;;;;;;;4896290;29;22030;-86
2021/12/30 16:47:54;;;;;;;;;;;;;;;;;;4906875;29;20051;-86
2021/12/30 16:50:20;;;;;;;45.92;9.82;;;;;;;;;;4910732;29;19927;-86
2021/12/30 16:52:47;;;;;;;23.77;4.03;;;;;;;;;;4909249;29;20874;-86
2021/12/30 16:55:15;;;;;;;31.40;6.28;;;;;;;;;;4909723;29;20067;-85
2021/12/30 16:57:42;;;;;;;33.63;6.22;;;;;;;;;;4887311;29;20063;-84
2021/12/30 17:00:12;;;;;;;42.90;9.38;;;;;;;;;;4909113;29;20056;-85
2021/12/30 17:02:38;;;;;;;33.72;7.78;;;;;;;;;;4910723;29;20471;-84
2021/12/30 17:05:07;;;;;;;48.35;14.10;;;;;;;;;;4905900;29;20095;-85
2021/12/30 17:07:35;;;;;;;38.67;8.23;;;;;;;;;;4909634;29;20493;-85
2021/12/30 17:10:03;;;;;;;29.65;6.97;;;;;;;;;;4911297;29;20111;-84
2021/12/30 17:12:30;;;;;;;38.60;6.30;;;;;;;;;;4909264;29;20052;-83
2021/12/30 17:14:57;;;;;;;36.78;6.45;;;;;;;;;;4921281;28;20095;-87
2021/12/30 17:17:23;;;;;;;36.72;6.82;;;;;;;;;;4893664;29;20055;-85
2021/12/30 17:19:50;;;;;;;35.17;8.35;;;;;;;;;;4909861;29;20048;-85
2021/12/30 17:22:17;;;;;;;43.55;10.45;;;;;;;;;;4909695;29;20040;-85
2021/12/30 17:24:46;;;;;;;46.47;10.02;;;;;;;;;;4909283;29;20611;-84
2021/12/30 17:27:15;;;;;;;40.38;8.77;;;;;;;;;;4909569;29;20136;-86
2021/12/30 17:29:48;;;;;;;47.88;9.48;;;;;;;;;;4907887;29;20498;-93
2021/12/30 17:32:15;;;;;;;56.63;12.98;;;;;;;;;;4902368;29;20044;-83
2021/12/30 17:34:42;;;;;;;67.03;19.65;;;;;;;;;;4907994;29;20136;-83
2021/12/30 17:37:13;;;;;;;59.83;21.52;;;;;;;;;;4884473;29;20056;-85
2021/12/30 17:39:40;;;;;;;48.90;17.35;;;;;;;;;;4898334;29;20055;-83
2021/12/30 17:42:07;;;;;;;65.07;20.30;;;;;;;;;;4881587;29;20061;-84
2021/12/30 17:44:35;;;;;;;62.55;16.10;;;;;;;;;;4902758;29;20052;-86
2021/12/30 17:47:04;;;;;;;63.50;13.88;;;;;;;;;;4912034;29;20477;-88
2021/12/30 17:49:31;;;;;;;58.05;12.65;;;;;;;;;;4905750;29;20079;-88
2021/12/30 17:51:58;;;;;;;54.67;14.07;;;;;;;;;;4910684;29;20040;-88
2021/12/30 17:54:25;;;;;;;47.60;11.23;;;;;;;;;;4901039;29;20176;-86
2021/12/30 17:56:52;;;;;;;59.20;11.45;;;;;;;;;;4908644;29;20067;-88
2021/12/30 17:59:19;;;;;;;45.65;10.20;;;;;;;;;;4892236;29;20041;-91
2021/12/30 18:01:46;;;;;;;50.08;9.52;;;;;;;;;;4899300;29;20155;-88
2021/12/30 18:04:13;;;;;;;41.88;8.27;;;;;;;;;;4910783;29;20072;-89
2021/12/30 18:06:44;;;;;;;44.83;9.35;;;;;;;;;;4908253;29;20543;-84
2021/12/30 18:09:16;;;;;;;48.75;8.95;;;;;;;;;;4905135;29;20516;-85
2021/12/30 18:11:43;;;;;;;51.20;10.93;;;;;;;;;;4882602;29;20048;-86
2021/12/30 18:14:17;;;;;;;48.40;10.25;;;;;;;;;;4888024;29;20052;-86
2021/12/30 18:17:37;;;;;;;55.53;11.88;;;;;;;;;;4903782;29;20134;-86
2021/12/30 18:20:07;;;;;;;62.67;10.77;;;;;;;;;;4898964;29;20080;-86
2021/12/30 18:22:37;;;;;;;46.10;11.30;;;;;;;;;;4909541;29;20468;-85
2021/12/30 18:25:09;;;;;;;47.08;10.07;;;;;;;;;;4895658;29;20484;-87
2021/12/30 18:27:43;;;;;;;41.17;10.77;;;;;;;;;;4896402;29;20044;-86
2021/12/30 18:30:11;;;;;;;38.25;10.68;;;;;;;;;;4878508;29;20491;-82
2021/12/30 18:32:38;;;;;;;45.42;10.48;;;;;;;;;;4903644;29;20079;-83
2021/12/30 18:35:06;;;;;;;47.03;13.27;;;;;;;;;;4888816;29;20052;-87
2021/12/30 18:37:33;;;;;;;58.60;10.82;;;;;;;;;;4878117;29;20132;-85
2021/12/30 18:39:59;;;;;;;71.03;21.05;;;;;;;;;;4902253;29;20048;-85
2021/12/30 18:42:31;;;;;;;56.95;12.73;;;;;;;;;;4889066;29;20111;-84
2021/12/30 18:45:02;;;;;;;48.35;12.88;;;;;;;;;;4900476;29;20509;-85
2021/12/30 18:48:06;;;;;;;59.50;15.25;;;;;;;;;;4894100;29;20509;-88
2021/12/30 18:50:41;;;;;;;59.13;16.75;;;;;;;;;;4895248;29;20092;-86
2021/12/30 18:53:15;;;;;;;59.25;14.00;;;;;;;;;;4906168;29;20058;-87
2021/12/30 18:55:47;;;;;;;61.08;14.45;;;;;;;;;;4900322;29;20078;-86
2021/12/30 18:58:17;;;;;;;55.05;13.25;;;;;;;;;;4908215;29;20436;-84
2021/12/30 19:00:49;;;;;;;66.30;14.45;;;;;;;;;;4908474;29;20488;-86
2021/12/30 19:03:17;;;;;;;73.43;14.55;;;;;;;;;;4900161;29;20060;-85
2021/12/30 19:05:46;;;;;;;77.32;13.50;;;;;;;;;;4898043;29;20044;-87
2021/12/30 19:08:18;;;;;;;55.80;12.18;;;;;;;;;;4904762;29;20060;-88
2021/12/30 19:10:46;;;;;;;50.72;11.30;;;;;;;;;;4903147;29;20040;-87
2021/12/30 19:13:17;;;;;;;72.70;14.98;;;;;;;;;;4892665;29;20596;-89
2021/12/30 19:15:47;;;;;;;71.40;15.75;;;;;;;;;;4895406;29;20052;-88
2021/12/30 19:18:15;;;;;;;61.00;13.85;;;;;;;;;;4882873;29;20058;-86
2021/12/30 19:20:43;;;;;;;;;;;;;;;;;;4905731;29;20555;-86
2021/12/30 19:23:10;;;;;;;60.10;11.13;;;;;;;;;;4904072;29;19927;-84
2021/12/30 19:25:40;;;;;;;51.95;12.18;;;;;;;;;;4895248;29;20075;-84
2021/12/30 19:28:07;;;;;;;48.42;11.85;;;;;;;;;;4905670;29;20392;-87
2021/12/30 19:30:35;;;;;;;52.10;12.77;;;;;;;;;;4904867;29;20056;-85
2021/12/30 19:33:06;;;;;;;58.30;11.07;;;;;;;;;;4905455;29;20535;-86
2021/12/30 19:35:39;;;;;;;51.08;9.82;;;;;;;;;;4901152;29;20131;-84
2021/12/30 19:38:08;;;;;;;51.85;11.13;;;;;;;;;;4903763;29;20058;-86
2021/12/30 19:40:35;;;;;;;48.00;9.80;;;;;;;;;;4896307;29;20513;-83
2021/12/30 19:43:08;;;;;;;44.08;9.23;;;;;;;;;;4902395;29;20056;-87
2021/12/30 19:45:36;;;;;;;49.08;9.68;;;;;;;;;;4882130;29;20501;-86
2021/12/30 19:48:05;;;;;;;58.67;10.25;;;;;;;;;;4870501;29;20052;-87
2021/12/30 19:50:36;;;;;;;46.63;8.50;;;;;;;;;;4871656;29;20159;-88
2021/12/30 19:53:04;;;;;;;50.72;10.75;;;;;;;;;;4855291;29;20154;-85
2021/12/30 19:55:32;;;;;;;52.03;10.00;;;;;;;;;;4897531;29;20044;-85
2021/12/30 19:57:59;;;;;;;76.43;12.90;;;;;;;;;;3443018;29;27788681;-87
2021/12/30 20:00:29;;;;;;;61.60;11.68;;;;;;;;;;4873073;29;20425;-87
2021/12/30 20:02:58;;;;;;;67.18;11.57;;;;;;;;;;4887927;29;20105;-85
2021/12/30 20:05:26;;;;;;;59.75;8.98;;;;;;;;;;4887417;29;20052;-86
2021/12/30 20:07:55;;;;;;;63.80;9.48;;;;;;;;;;4891187;29;20056;-89
2021/12/30 20:10:22;;;;;;;62.20;9.90;;;;;;;;;;4909725;29;20847;-87
2021/12/30 20:12:50;;;;;;;63.33;9.02;;;;;;;;;;4908229;29;20394;-88
2021/12/30 20:15:18;;;;;;;60.50;11.13;;;;;;;;;;4892807;29;20060;-87
2021/12/30 20:17:45;;;;;;;50.50;8.20;;;;;;;;;;4896525;29;20044;-88
2021/12/30 20:20:13;;;;;;;72.25;11.00;;;;;;;;;;4891566;29;20049;-87
2021/12/30 20:22:41;;;;;;;63.90;10.35;;;;;;;;;;4879897;29;20056;-87
2021/12/30 20:25:13;;;;;;;67.82;9.55;;;;;;;;;;4911019;29;20617;-88
2021/12/30 20:27:40;;;;;;;53.80;9.90;;;;;;;;;;4886079;29;20566;-87
2021/12/30 20:30:11;;;;;;;54.47;8.63;;;;;;;;;;4882282;29;20541;-86
2021/12/30 20:32:40;;;;;;;58.72;8.20;;;;;;;;;;4901927;29;20471;-88
2021/12/30 20:35:08;;;;;;;61.97;9.35;;;;;;;;;;4896745;29;20053;-86
2021/12/30 20:37:35;;;;;;;66.47;9.70;;;;;;;;;;4897706;29;20119;-87
2021/12/30 20:40:03;;;;;;;56.63;9.82;;;;;;;;;;4878469;29;20410;-86
2021/12/30 20:42:30;;;;;;;59.63;8.35;;;;;;;;;;4893864;29;20044;-87
2021/12/30 20:44:58;;;;;;;59.65;8.65;;;;;;;;;;4892270;29;20052;-88
2021/12/30 20:47:25;;;;;;;56.05;8.45;;;;;;;;;;4886988;29;20491;-86
2021/12/30 20:49:52;;;;;;;61.47;7.85;;;;;;;;;;4890769;29;20101;-86
2021/12/30 20:52:18;;;;;;;56.22;8.43;;;;;;;;;;4889021;29;20055;-86
2021/12/30 20:56:34;;;;;;;;;;;;;;;;;;2793041;29;167378817;-86
2021/12/30 20:59:04;;;;;;;71.07;8.73;;;;;;;;;;4857659;29;20258;-84
2021/12/30 21:01:34;;;;;;;63.30;8.75;;;;;;;;;;4864311;29;20053;-89
2021/12/30 21:04:21;;;;;;;73.65;9.68;;;;;;;;;;4852942;29;20105;-90
2021/12/30 21:10:47;;;;;;;67.28;8.70;;;;;;;;;;4758901;29;20058;-87
2021/12/30 21:13:16;;;;;;;78.35;8.90;;;;;;;;;;4776452;29;20058;-86
2021/12/30 21:15:46;;;;;;;74.30;8.82;;;;;;;;;;4786882;29;20055;-87
2021/12/30 21:18:42;;;;;;;64.03;8.52;;;;;;;;;;4768261;29;20059;-84
2021/12/30 21:22:15;;;;;;;;;;;;;;;;;;3758829;30;94350296;-86
2021/12/30 21:24:43;;;;;;;77.07;10.40;;;;;;;;;;4769338;29;21660;-86
2021/12/30 21:28:24;;;;;;;;;;;;;;;;;;900516;29;178246920;-86
2021/12/30 21:31:18;;;;;;;80.43;10.85;;;;;;;;;;2537654;29;67705666;-86
2021/12/30 21:33:58;;;;;;;86.72;9.88;;;;;;;;;;4780302;29;20058;-85
2021/12/30 21:36:29;;;;;;;64.70;9.88;;;;;;;;;;4771107;29;20085;-84
2021/12/30 21:39:17;;;;;;;72.97;10.20;;;;;;;;;;4767095;29;20109;-85
2021/12/30 21:41:52;;;;;;;77.28;10.05;;;;;;;;;;4780563;29;20058;-84
2021/12/30 21:44:36;;;;;;;97.32;10.07;;;;;;;;;;4712549;29;20063;-84
2021/12/30 21:47:30;;;;;;;85.38;10.43;;;;;;;;;;4789099;29;20084;-85
2021/12/30 21:50:22;;;;;;;73.70;11.43;;;;;;;;;;4835671;29;20415;-85
2021/12/30 21:53:12;;;;;;;80.63;10.57;;;;;;;;;;4743955;29;20083;-85
2021/12/30 21:55:39;;;;;;;72.82;11.32;;;;;;;;;;4844248;29;20055;-84
2021/12/30 21:58:20;;;;;;;97.90;12.80;;;;;;;;;;4815290;29;20081;-87
2021/12/30 22:01:15;;;;;;;75.38;11.45;;;;;;;;;;4837418;29;20056;-86
2021/12/30 22:03:56;;;;;;;;;;;;;;;;;;;;;